Time;durP1;ratioP1;P1;durP2;ratioP2;P2;SDS_P1;SDS_P2;PMS_P1;PMS_P2;Temp;Humidity;BMP_temperature;BMP_pressure;BME280_temperature;BME280_humidity;BME280_pressure;Samples;Min_cycle;Max_cycle;Signal;HPM_P1;HPM_P2
2021/10/08 00:02:11;;;;;;;10.30;5.60;;;7.30;99.90;;;5.54;100.00;102628.84;2568855;30;137455;-39
2021/10/08 00:04:39;;;;;;;8.45;5.07;;;7.30;99.90;;;5.50;100.00;102620.13;2568930;30;137511;-39
2021/10/08 00:07:07;;;;;;;8.35;4.55;;;7.30;99.90;;;5.44;100.00;102620.66;2569719;30;138649;-39
2021/10/08 00:09:34;;;;;;;9.75;4.72;;;7.20;99.90;;;5.41;100.00;102626.34;2568704;30;136871;-39
2021/10/08 00:12:03;;;;;;;10.52;5.00;;;7.20;99.90;;;5.35;100.00;102621.47;2570746;30;138227;-39
2021/10/08 00:14:32;;;;;;;8.48;4.57;;;7.10;99.90;;;5.33;100.00;102632.41;2569489;30;137350;-39
2021/10/08 00:16:59;;;;;;;8.38;5.05;;;7.10;99.90;;;5.29;100.00;102626.41;2567913;30;138112;-39
2021/10/08 00:19:27;;;;;;;7.70;4.25;;;7.10;99.90;;;5.27;100.00;102630.25;2565949;30;138647;-39
2021/10/08 00:21:55;;;;;;;;;;;7.10;99.90;;;5.24;100.00;102628.66;2569629;30;138520;-39
2021/10/08 00:24:23;;;;;;;8.57;4.43;;;7.00;99.90;;;5.22;99.99;102625.22;2569142;30;137980;-39
2021/10/08 00:26:53;;;;;;;8.23;4.88;;;7.00;99.90;;;5.19;100.00;102628.22;2567608;30;137513;-39
2021/10/08 00:30:04;;;;;;;9.70;4.82;;;7.00;99.90;;;5.17;100.00;102624.78;2568310;30;136804;-39
2021/10/08 00:32:31;;;;;;;10.60;4.70;;;7.00;99.90;;;5.16;100.00;102628.47;2568032;30;138410;-39
2021/10/08 00:34:58;;;;;;;10.48;5.03;;;6.90;99.90;;;5.14;100.00;102628.59;2569424;30;136696;-39
2021/10/08 00:37:26;;;;;;;10.70;4.72;;;6.90;99.90;;;5.07;100.00;102623.88;2570133;30;137134;-39
2021/10/08 00:39:54;;;;;;;8.90;4.85;;;6.90;99.90;;;5.09;100.00;102636.25;2567154;30;137531;-39
2021/10/08 00:42:26;;;;;;;7.65;4.25;;;6.90;99.90;;;5.03;100.00;102639.50;2568387;30;137402;-39
2021/10/08 00:44:54;;;;;;;10.10;5.15;;;6.80;99.90;;;5.01;100.00;102644.19;2567455;30;137537;-39
2021/10/08 00:47:21;;;;;;;;;;;6.80;99.90;;;5.00;100.00;102643.31;2567361;30;140731;-48
2021/10/08 00:49:51;;;;;;;10.57;4.70;;;6.80;99.90;;;4.99;100.00;102647.00;2570694;30;136698;-39
2021/10/08 00:52:19;;;;;;;9.15;5.25;;;6.80;99.90;;;4.99;100.00;102644.28;2570256;30;139353;-39
2021/10/08 00:54:47;;;;;;;13.95;5.18;;;6.80;99.90;;;5.01;100.00;102644.19;2569953;30;137081;-39
2021/10/08 00:57:14;;;;;;;9.95;5.18;;;6.80;99.90;;;4.95;100.00;102640.13;2569140;30;138797;-39
2021/10/08 00:59:43;;;;;;;8.90;4.88;;;6.80;99.90;;;4.94;100.00;102638.44;2566726;30;137129;-39
2021/10/08 01:02:10;;;;;;;8.88;4.45;;;6.70;99.90;;;4.86;100.00;102639.06;2570820;30;137470;-38
2021/10/08 01:04:38;;;;;;;12.52;5.43;;;6.70;99.90;;;4.87;100.00;102648.91;2569262;30;138329;-39
2021/10/08 01:07:05;;;;;;;9.90;4.70;;;6.70;99.90;;;4.85;100.00;102639.22;2566393;30;138188;-39
2021/10/08 01:09:33;;;;;;;10.50;4.90;;;6.70;99.90;;;4.81;100.00;102640.47;2569452;30;140071;-39
2021/10/08 01:12:01;;;;;;;10.15;4.90;;;6.60;99.90;;;4.79;100.00;102642.44;2565902;30;138660;-39
2021/10/08 01:14:34;;;;;;;8.57;4.95;;;6.60;99.90;;;4.77;100.00;102636.28;2568270;30;139004;-39
2021/10/08 01:17:15;;;;;;;10.75;5.13;;;6.60;99.90;;;4.71;100.00;102627.72;2568841;30;137198;-39
2021/10/08 01:19:46;;;;;;;8.38;4.72;;;6.50;99.90;;;4.67;100.00;102633.53;2568298;30;138363;-39
2021/10/08 01:22:14;;;;;;;9.52;5.07;;;6.50;99.90;;;4.66;100.00;102621.00;2570163;30;140002;-39
2021/10/08 01:24:45;;;;;;;9.57;4.90;;;6.50;99.90;;;4.64;100.00;102631.91;2567610;30;138914;-39
2021/10/08 01:27:18;;;;;;;8.63;4.35;;;6.50;99.90;;;4.64;100.00;102639.16;2567623;30;139875;-39
2021/10/08 01:29:56;;;;;;;11.60;5.00;;;6.40;99.90;;;4.61;100.00;102643.00;2569062;30;139730;-39
2021/10/08 01:32:32;;;;;;;7.43;4.22;;;6.40;99.90;;;4.58;100.00;102636.00;2567861;30;137488;-39
2021/10/08 01:35:00;;;;;;;8.13;4.68;;;6.40;99.90;;;4.60;100.00;102630.47;2566804;30;139569;-39
2021/10/08 01:37:27;;;;;;;9.02;4.60;;;6.40;99.90;;;4.59;100.00;102644.97;2568983;30;139225;-39
2021/10/08 01:39:55;;;;;;;9.32;4.65;;;6.40;99.90;;;4.56;100.00;102643.38;2568773;30;138204;-39
2021/10/08 01:42:23;;;;;;;7.97;4.47;;;6.40;99.90;;;4.53;100.00;102640.09;2567054;30;139710;-39
2021/10/08 01:44:51;;;;;;;;;;;6.30;99.90;;;4.49;100.00;102635.91;2571466;30;139102;-39
2021/10/08 01:47:20;;;;;;;8.23;4.33;;;6.30;99.90;;;4.45;100.00;102644.25;2569094;30;138380;-39
2021/10/08 01:49:49;;;;;;;10.70;5.03;;;6.30;99.90;;;4.43;100.00;102643.53;2569953;30;139030;-39
2021/10/08 01:52:17;;;;;;;7.35;4.22;;;6.30;99.90;;;4.42;100.00;102644.53;2568745;30;137534;-39
2021/10/08 01:54:48;;;;;;;9.60;4.38;;;6.20;99.90;;;4.40;100.00;102642.94;2577376;30;139399;-40
2021/10/08 01:57:18;;;;;;;8.88;4.20;;;6.20;99.90;;;4.39;100.00;102649.34;2567902;30;137962;-41
2021/10/08 01:59:46;;;;;;;8.48;4.57;;;6.20;99.90;;;4.35;100.00;102648.72;2568489;30;139316;-40
2021/10/08 02:02:16;;;;;;;7.65;4.25;;;6.20;99.90;;;4.33;100.00;102658.81;2568068;30;138322;-41
2021/10/08 02:04:44;;;;;;;8.25;4.10;;;6.10;99.90;;;4.31;100.00;102655.38;2568079;30;138752;-40
2021/10/08 02:07:11;;;;;;;7.97;4.40;;;6.10;99.90;;;4.27;100.00;102651.22;2566640;30;139088;-40
2021/10/08 02:09:41;;;;;;;9.40;4.70;;;6.10;99.90;;;4.27;100.00;102656.63;2565226;30;137866;-40
2021/10/08 02:12:12;;;;;;;8.85;4.78;;;6.10;99.90;;;4.25;100.00;102650.47;2567938;30;138534;-40
2021/10/08 02:14:39;;;;;;;9.48;4.35;;;6.10;99.90;;;4.24;100.00;102646.03;2567093;30;137698;-40
2021/10/08 02:17:08;;;;;;;8.23;4.40;;;6.10;99.90;;;4.25;100.00;102648.63;2568190;30;138405;-40
2021/10/08 02:19:35;;;;;;;8.50;3.97;;;6.10;99.90;;;4.25;100.00;102647.78;2568068;30;139330;-40
2021/10/08 02:22:03;;;;;;;7.10;3.58;;;6.00;99.90;;;4.23;100.00;102657.81;2567993;30;138257;-40
2021/10/08 02:24:35;;;;;;;7.47;3.55;;;6.10;99.90;;;4.20;100.00;102650.84;2565613;30;137395;-40
2021/10/08 02:27:03;;;;;;;6.53;3.75;;;6.00;99.90;;;4.18;100.00;102650.13;2568020;30;139655;-40
2021/10/08 02:29:31;;;;;;;8.07;3.88;;;6.00;99.90;;;4.15;100.00;102648.50;2567997;30;138324;-40
2021/10/08 02:32:01;;;;;;;7.47;3.97;;;6.00;99.90;;;4.13;100.00;102650.47;2566876;30;138695;-40
2021/10/08 02:34:31;;;;;;;6.93;3.50;;;6.00;99.90;;;4.12;100.00;102651.47;2567918;30;137197;-40
2021/10/08 02:36:59;;;;;;;6.18;3.33;;;5.90;99.90;;;4.11;100.00;102654.28;2568774;30;138100;-41
2021/10/08 02:39:27;;;;;;;7.70;3.83;;;5.90;99.90;;;4.06;100.00;102643.88;2569398;30;137540;-40
2021/10/08 02:41:55;;;;;;;8.20;3.75;;;5.90;99.90;;;4.05;100.00;102652.97;2568761;30;138475;-40
2021/10/08 02:44:22;;;;;;;6.55;3.75;;;5.90;99.90;;;4.02;100.00;102642.41;2568297;30;137719;-40
2021/10/08 02:46:52;;;;;;;6.93;4.10;;;5.80;99.90;;;4.00;100.00;102644.38;2569353;30;139461;-40
2021/10/08 02:49:23;;;;;;;6.97;3.85;;;5.80;99.90;;;3.98;100.00;102639.06;2567968;30;138524;-40
2021/10/08 02:52:05;;;;;;;7.78;4.00;;;5.80;99.90;;;3.96;100.00;102637.47;2568365;30;138807;-41
2021/10/08 02:54:46;;;;;;;7.88;4.03;;;5.80;99.90;;;3.93;100.00;102645.81;2567688;30;139559;-40
2021/10/08 02:57:14;;;;;;;7.05;3.80;;;5.80;99.90;;;3.93;100.00;102645.81;2568254;30;139052;-40
2021/10/08 02:59:41;;;;;;;8.23;4.05;;;5.80;99.90;;;3.89;100.00;102639.84;2567116;30;136945;-40
2021/10/08 03:02:10;;;;;;;9.27;4.47;;;5.70;99.90;;;3.88;100.00;102635.41;2568020;30;138428;-40
2021/10/08 03:04:40;;;;;;;8.50;3.90;;;5.70;99.90;;;3.76;100.00;102621.06;2567889;30;137783;-40
2021/10/08 03:07:08;;;;;;;8.82;4.43;;;5.70;99.90;;;3.84;100.00;102642.03;2568386;30;139589;-40
2021/10/08 03:09:36;;;;;;;6.68;3.60;;;5.60;99.90;;;3.82;100.00;102644.00;2566355;30;137488;-40
2021/10/08 03:12:05;;;;;;;7.40;3.88;;;5.70;99.90;;;3.82;100.00;102641.28;2566060;30;139709;-40
2021/10/08 03:14:34;;;;;;;9.73;4.20;;;5.70;99.90;;;3.82;100.00;102642.16;2566294;30;137324;-40
2021/10/08 03:17:02;;;;;;;8.20;4.07;;;5.60;99.90;;;3.80;100.00;102648.66;2567748;30;139963;-40
2021/10/08 03:19:30;;;;;;;;;;;5.60;99.90;;;3.78;100.00;102651.50;2567263;30;138921;-40
2021/10/08 03:21:57;;;;;;;6.82;3.28;;;5.60;99.90;;;3.76;100.00;102639.97;2568417;30;139171;-40
2021/10/08 03:24:25;;;;;;;7.30;4.00;;;5.60;99.90;;;3.74;100.00;102650.88;2567981;30;137171;-40
2021/10/08 03:26:53;;;;;;;6.97;3.70;;;5.60;99.90;;;3.69;100.00;102650.38;2567856;30;138879;-40
2021/10/08 03:29:21;;;;;;;7.05;3.80;;;5.50;99.90;;;3.69;100.00;102649.50;2567188;30;137318;-40
2021/10/08 03:31:48;;;;;;;6.65;3.83;;;5.50;99.90;;;3.68;100.00;102650.50;2566812;30;140708;-40
2021/10/08 03:34:16;;;;;;;7.43;3.90;;;5.50;99.90;;;3.67;100.00;102646.94;2564403;30;139376;-40
2021/10/08 03:36:46;;;;;;;8.10;4.07;;;5.50;99.90;;;3.66;100.00;102644.34;2567031;30;138767;-40
2021/10/08 03:39:19;;;;;;;6.80;3.67;;;5.50;99.90;;;3.65;100.00;102648.03;2567080;30;137322;-40
2021/10/08 03:41:50;;;;;;;6.97;3.75;;;5.50;99.90;;;3.66;100.00;102647.06;2568058;30;141073;-40
2021/10/08 03:44:18;;;;;;;6.78;3.88;;;5.50;99.90;;;3.67;100.00;102648.78;2568582;30;137414;-40
2021/10/08 03:46:56;;;;;;;6.05;3.60;;;5.50;99.90;;;3.65;100.00;102646.22;2565919;30;140823;-40
2021/10/08 03:49:24;;;;;;;7.68;3.80;;;5.50;99.90;;;3.63;100.00;102652.69;2566105;30;137556;-40
2021/10/08 03:51:53;;;;;;;9.93;4.38;;;5.40;99.90;;;3.57;100.00;102641.41;2568340;30;138404;-40
2021/10/08 03:54:23;;;;;;;7.45;3.90;;;5.40;99.90;;;3.55;100.00;102648.78;2567419;30;138286;-40
2021/10/08 03:56:50;;;;;;;8.20;3.85;;;5.40;99.90;;;3.51;100.00;102643.72;2565501;30;138255;-40
2021/10/08 03:59:18;;;;;;;8.10;3.83;;;5.40;99.90;;;3.51;100.00;102649.13;2569158;30;137471;-40
2021/10/08 04:01:48;;;;;;;6.60;3.78;;;5.30;99.90;;;3.48;100.00;102647.56;2566431;30;140132;-40
2021/10/08 04:04:16;;;;;;;7.63;4.40;;;5.30;99.90;;;3.48;100.00;102654.78;2567274;30;138606;-40
2021/10/08 04:06:44;;;;;;;6.95;3.50;;;5.30;99.90;;;3.47;100.00;102653.06;2566089;30;140262;-40
2021/10/08 04:09:13;;;;;;;7.40;4.00;;;5.30;99.90;;;3.45;100.00;102650.50;2568155;30;139801;-40
2021/10/08 04:11:43;;;;;;;7.20;3.63;;;5.30;99.90;;;3.42;100.00;102656.09;2567571;30;138118;-40
2021/10/08 04:14:10;;;;;;;7.78;3.67;;;5.30;99.90;;;3.41;100.00;102654.38;2567109;30;137684;-40
2021/10/08 04:16:38;;;;;;;8.55;3.67;;;5.30;99.90;;;3.40;100.00;102658.06;2567678;30;139714;-40
2021/10/08 04:19:07;;;;;;;8.13;4.13;;;5.20;99.90;;;3.38;100.00;102651.94;2569087;30;138954;-40
2021/10/08 04:21:35;;;;;;;7.15;3.67;;;5.20;99.90;;;3.37;100.00;102659.19;2564648;30;140651;-40
2021/10/08 04:24:04;;;;;;;6.80;3.75;;;5.20;99.90;;;3.35;100.00;102660.28;2567296;30;138455;-40
2021/10/08 04:26:32;;;;;;;6.85;3.83;;;5.20;99.90;;;3.33;100.00;102664.94;2567212;30;138316;-40
2021/10/08 04:29:00;;;;;;;;;;;5.20;99.90;;;3.30;100.00;102669.59;2567890;30;138713;-40
2021/10/08 04:31:32;;;;;;;7.95;3.58;;;5.20;99.90;;;3.30;100.00;102666.88;2566978;30;139745;-40
2021/10/08 04:34:00;;;;;;;6.38;3.42;;;5.10;99.90;;;3.29;100.00;102673.25;2568391;30;138422;-41
2021/10/08 04:36:28;;;;;;;6.30;3.53;;;5.20;99.90;;;3.29;100.00;102667.00;2564303;30;139479;-40
2021/10/08 04:38:57;;;;;;;7.53;3.83;;;5.10;99.90;;;3.30;100.00;102668.72;2567423;30;139823;-40
2021/10/08 04:41:25;;;;;;;5.93;3.53;;;5.10;99.90;;;3.26;100.00;102668.13;2566884;30;139123;-40
2021/10/08 04:43:53;;;;;;;6.47;3.53;;;5.10;99.90;;;3.24;100.00;102658.41;2568470;30;139133;-40
2021/10/08 04:46:20;;;;;;;9.48;3.67;;;5.10;99.90;;;3.22;100.00;102663.94;2567649;30;138321;-40
2021/10/08 04:48:50;;;;;;;6.68;3.80;;;5.10;99.90;;;3.20;100.00;102668.59;2565947;30;137277;-40
2021/10/08 04:51:17;;;;;;;7.95;3.92;;;5.00;99.90;;;3.17;100.00;102663.41;2567349;30;138298;-40
2021/10/08 04:53:45;;;;;;;7.60;4.03;;;5.00;99.90;;;3.16;100.00;102659.00;2566200;30;137396;-40
2021/10/08 04:56:12;;;;;;;8.60;3.92;;;5.00;99.90;;;3.16;100.00;102659.00;2568914;30;138303;-41
2021/10/08 04:58:40;;;;;;;8.10;4.07;;;5.00;99.90;;;3.17;100.00;102658.00;2568030;30;136813;-40
2021/10/08 05:01:07;;;;;;;6.93;3.65;;;5.00;99.90;;;3.17;100.00;102658.00;2565052;30;139956;-40
2021/10/08 05:03:36;;;;;;;8.30;3.65;;;5.00;99.90;;;3.15;100.00;102666.25;2567612;30;137250;-40
2021/10/08 05:06:03;;;;;;;6.43;3.53;;;5.00;99.90;;;3.13;100.00;102661.94;2568446;30;138078;-40
2021/10/08 05:08:41;;;;;;;6.72;3.45;;;5.00;99.90;;;3.09;100.00;102664.03;2566991;30;139009;-40
2021/10/08 05:11:10;;;;;;;7.78;4.20;;;4.90;99.90;;;3.08;100.00;102661.44;2569079;30;139954;-40
2021/10/08 05:13:38;;;;;;;6.93;3.80;;;4.90;99.90;;;3.07;100.00;102667.81;2568167;30;139492;-40
2021/10/08 05:16:06;;;;;;;8.05;3.25;;;4.90;99.90;;;3.05;100.00;102670.63;2566309;30;139791;-40
2021/10/08 05:18:34;;;;;;;7.32;3.72;;;4.90;99.90;;;3.05;100.00;102670.63;2567452;30;139361;-40
2021/10/08 05:21:02;;;;;;;8.88;3.92;;;4.90;99.90;;;3.05;100.00;102667.94;2567792;30;140441;-40
2021/10/08 05:23:31;;;;;;;8.32;3.55;;;4.90;99.90;;;3.05;100.00;102672.47;2567997;30;138810;-40
2021/10/08 05:26:00;;;;;;;7.47;3.30;;;4.90;99.90;;;3.06;100.00;102674.19;2565327;30;139862;-40
2021/10/08 05:28:27;;;;;;;8.13;3.40;;;4.90;99.90;;;3.03;100.00;102672.56;2568295;30;137740;-40
2021/10/08 05:30:58;;;;;;;8.05;3.78;;;4.90;99.90;;;3.02;100.00;102678.94;2568450;30;138172;-40
2021/10/08 05:33:26;;;;;;;7.57;3.72;;;4.90;99.90;;;3.01;100.00;102675.38;2567286;30;138576;-40
2021/10/08 05:35:53;;;;;;;7.63;3.95;;;4.80;99.90;;;2.99;100.00;102674.66;2567471;30;138039;-40
2021/10/08 05:38:22;;;;;;;6.35;3.30;;;4.80;99.90;;;2.97;100.00;102679.31;2567574;30;138798;-40
2021/10/08 05:40:52;;;;;;;7.38;3.40;;;4.80;99.90;;;2.97;100.00;102676.59;2567939;30;137265;-40
2021/10/08 05:43:22;;;;;;;6.55;3.80;;;4.80;99.90;;;2.96;100.00;102674.88;2566381;30;138626;-40
2021/10/08 05:45:54;;;;;;;6.47;3.67;;;4.80;99.90;;;2.94;100.00;102684.94;2567746;30;140622;-40
2021/10/08 05:48:23;;;;;;;6.80;3.22;;;4.80;99.90;;;2.93;100.00;102683.22;2567020;30;139743;-40
2021/10/08 19:56:37;;;;;;;5.82;3.47;;;14.70;99.90;;;9.29;94.06;102545.16;2551653;30;136418;-39
2021/10/08 19:59:05;;;;;;;7.43;3.58;;;11.10;99.90;;;9.26;94.26;102543.59;2569070;30;137596;-46
2021/10/08 20:01:32;;;;;;;7.22;3.63;;;10.90;99.90;;;9.18;93.90;102544.41;2569024;30;138397;-39
2021/10/08 20:04:04;;;;;;;6.38;4.10;;;10.80;99.90;;;9.11;93.73;102551.50;2569944;30;137172;-39
2021/10/08 20:14:31;;;;;;;5.03;3.70;;;10.60;99.90;;;8.94;93.90;102541.53;2567314;30;137078;-39
2021/10/08 20:16:58;;;;;;;7.22;3.95;;;10.60;99.90;;;8.87;93.74;102549.47;2570830;30;137366;-39
2021/10/08 20:19:35;;;;;;;6.18;3.92;;;10.50;99.90;;;8.85;93.79;102546.91;2569462;30;136986;-39
2021/10/08 20:22:03;;;;;;;8.07;4.45;;;10.50;99.90;;;8.73;93.83;102543.56;2569354;30;137360;-39
2021/10/08 20:24:31;;;;;;;9.40;5.20;;;10.40;99.90;;;8.69;94.06;102542.19;2568153;30;136854;-39
2021/10/08 20:26:58;;;;;;;8.52;5.20;;;10.40;99.90;;;8.62;94.12;102544.72;2568904;30;139024;-39
2021/10/08 20:29:26;;;;;;;10.18;5.78;;;10.30;99.90;;;8.58;94.04;102545.16;2566491;30;137777;-39
2021/10/08 20:31:54;;;;;;;9.75;6.15;;;10.20;99.90;;;8.51;94.05;102542.22;2569226;30;138123;-39
2021/10/08 20:34:21;;;;;;;12.48;6.00;;;10.20;99.90;;;8.44;94.37;102536.50;2569425;30;137267;-39
2021/10/08 20:36:49;;;;;;;9.98;5.85;;;10.10;99.90;;;8.43;95.00;102539.41;2570216;30;138491;-39
2021/10/08 20:39:17;;;;;;;6.78;4.93;;;10.10;99.90;;;8.41;95.80;102536.81;2569335;30;137639;-39
2021/10/08 20:41:45;;;;;;;8.18;5.38;;;10.10;99.90;;;8.38;95.65;102533.56;2568946;30;139122;-39
2021/10/08 20:44:12;;;;;;;7.40;5.50;;;10.00;99.90;;;8.33;95.45;102534.88;2570287;30;136867;-39
2021/10/08 20:46:40;;;;;;;8.93;5.90;;;10.00;99.90;;;8.26;95.58;102535.69;2568483;30;138463;-39
2021/10/08 20:49:08;;;;;;;9.65;5.60;;;9.90;99.90;;;8.26;95.24;102546.56;2566531;30;137542;-39
2021/10/08 20:51:35;;;;;;;9.07;5.82;;;9.90;99.90;;;8.20;95.44;102531.69;2568354;30;139394;-39
2021/10/08 20:54:03;;;;;;;8.75;5.45;;;9.80;99.90;;;8.12;95.47;102546.06;2568988;30;137624;-39
2021/10/08 20:56:30;;;;;;;9.65;6.63;;;9.80;99.90;;;8.02;95.37;102535.25;2568368;30;139301;-39
2021/10/08 20:58:58;;;;;;;11.75;7.03;;;9.70;99.90;;;8.03;95.72;102544.28;2568395;30;136657;-39
2021/10/08 21:01:25;;;;;;;8.50;5.78;;;9.70;99.90;;;8.00;96.10;102548.16;2568075;30;138886;-39
2021/10/08 21:03:53;;;;;;;11.90;6.35;;;9.70;99.90;;;8.01;96.59;102549.00;2569613;30;138223;-39
2021/10/08 21:06:20;;;;;;;7.75;5.53;;;9.60;99.90;;;8.02;97.14;102548.00;2568041;30;138517;-39
2021/10/08 21:08:48;;;;;;;9.20;6.20;;;9.70;99.90;;;7.99;96.87;102543.72;2568789;30;137608;-39
2021/10/08 21:11:15;;;;;;;9.70;6.13;;;9.60;99.90;;;7.94;96.97;102542.47;2567272;30;138455;-39
2021/10/08 21:13:43;;;;;;;9.43;6.25;;;9.60;99.90;;;7.91;96.68;102544.47;2567892;30;137481;-39
2021/10/08 21:16:11;;;;;;;9.88;5.50;;;9.50;99.90;;;7.83;96.78;102538.97;2568628;30;138438;-39
2021/10/08 21:18:38;;;;;;;9.93;5.53;;;9.50;99.90;;;7.82;97.14;102539.09;2567423;30;138235;-39
2021/10/08 21:21:06;;;;;;;8.27;5.80;;;9.50;99.90;;;7.81;97.54;102540.97;2569516;30;137113;-39
2021/10/08 21:23:33;;;;;;;8.15;5.60;;;9.50;99.90;;;7.79;97.90;102537.56;2568959;30;138252;-39
2021/10/08 21:26:01;;;;;;;9.13;5.53;;;9.50;99.90;;;7.67;97.60;102530.59;2568963;30;138594;-39
2021/10/08 21:28:28;;;;;;;8.23;5.63;;;9.40;99.90;;;7.68;96.93;102541.34;2569007;30;137828;-39
2021/10/08 21:30:57;;;;;;;8.18;5.53;;;9.40;99.90;;;7.65;97.10;102541.63;2568236;30;136841;-39
2021/10/08 21:33:25;;;;;;;9.00;6.00;;;9.30;99.90;;;7.63;97.65;102536.34;2567108;30;137760;-39
2021/10/08 21:36:05;;;;;;;9.35;5.78;;;9.30;99.90;;;7.62;98.12;102550.09;2568645;30;137271;-39
2021/10/08 21:38:36;;;;;;;8.27;6.05;;;9.30;99.90;;;7.61;98.28;102545.66;2568144;30;136908;-39
2021/10/08 21:43:49;;;;;;;8.52;5.80;;;9.30;99.90;;;7.57;98.16;102547.81;2568293;30;137647;-39
2021/10/08 21:46:19;;;;;;;7.78;5.55;;;9.30;99.90;;;7.54;97.81;102542.69;2567535;30;138564;-39
2021/10/08 21:48:47;;;;;;;8.43;5.38;;;9.30;99.90;;;7.53;97.90;102546.41;2569906;30;137720;-39
2021/10/08 21:51:16;;;;;;;8.88;5.88;;;9.20;99.90;;;7.52;97.98;102542.00;2568326;30;137936;-39
2021/10/08 21:53:44;;;;;;;8.32;5.63;;;9.20;99.90;;;7.49;98.07;102545.84;2568502;30;136984;-39
2021/10/08 21:56:15;;;;;;;8.02;5.13;;;9.20;99.90;;;7.49;98.09;102545.84;2569660;30;138311;-39
2021/10/08 21:58:43;;;;;;;8.82;5.88;;;9.20;99.90;;;7.40;97.61;102541.31;2567948;30;136806;-39
2021/10/08 22:01:25;;;;;;;7.68;5.70;;;9.10;99.90;;;7.41;97.79;102544.88;2566772;30;138045;-40
2021/10/08 22:03:57;;;;;;;10.75;6.53;;;9.10;99.90;;;7.37;97.49;102548.91;2569698;30;137633;-39
2021/10/08 22:06:27;;;;;;;9.45;6.38;;;9.10;99.90;;;7.36;97.77;102539.03;2568655;30;138203;-39
2021/10/08 22:08:56;;;;;;;9.43;6.43;;;9.00;99.90;;;7.36;98.05;102547.19;2569744;30;138663;-39
2021/10/08 22:11:24;;;;;;;10.82;6.03;;;9.00;99.90;;;7.32;98.03;102543.94;2570928;30;139038;-39
2021/10/08 22:13:52;;;;;;;;;;;9.00;99.90;;;7.31;98.13;102553.94;2570692;30;138091;-39
2021/10/08 22:16:21;;;;;;;9.40;5.60;;;9.00;99.90;;;7.32;98.64;102544.78;2568829;30;137295;-39
2021/10/08 22:19:04;;;;;;;7.80;6.18;;;9.00;99.90;;;7.32;98.50;102546.66;2571549;30;137075;-39
2021/10/08 22:21:35;;;;;;;10.73;6.43;;;9.00;99.90;;;7.29;98.52;102544.22;2571282;30;138948;-39
2021/10/08 22:34:50;;;;;;;9.35;6.13;;;8.90;99.90;;;7.16;98.50;102547.25;2567946;30;137679;-39
2021/10/08 22:37:18;;;;;;;8.02;5.70;;;8.80;99.90;;;7.13;98.19;102544.84;2569298;30;137103;-39
2021/10/08 22:39:46;;;;;;;8.43;5.55;;;8.80;99.90;;;7.10;98.31;102545.13;2570484;30;137320;-39
2021/10/08 22:42:13;;;;;;;9.68;5.80;;;8.80;99.90;;;7.05;98.59;102541.00;2569681;30;139069;-39
2021/10/08 22:44:42;;;;;;;7.70;5.32;;;8.80;99.90;;;7.03;98.51;102539.47;2569626;30;138334;-39
2021/10/08 22:47:09;;;;;;;7.82;5.75;;;8.70;99.90;;;7.02;98.45;102540.44;2567779;30;137449;-39
2021/10/08 22:49:37;;;;;;;8.68;6.15;;;8.70;99.90;;;6.97;98.19;102538.19;2570260;30;138248;-39
2021/10/08 22:52:06;;;;;;;9.27;5.70;;;8.70;99.90;;;6.98;98.05;102539.88;2569555;30;139320;-39
2021/10/08 22:54:33;;;;;;;8.70;6.07;;;8.60;99.90;;;6.94;97.99;102535.75;2567127;30;137465;-39
2021/10/08 22:57:01;;;;;;;10.05;6.28;;;8.60;99.90;;;6.88;97.90;102533.59;2570257;30;138305;-39
2021/10/08 22:59:29;;;;;;;9.15;6.43;;;8.60;99.90;;;6.86;98.47;102535.63;2569859;30;136947;-39
2021/10/08 23:01:56;;;;;;;9.82;6.07;;;8.50;99.90;;;6.84;98.98;102534.91;2570677;30;137310;-39
2021/10/08 23:04:24;;;;;;;11.77;5.93;;;8.50;99.90;;;6.78;99.14;102524.66;2569387;30;138036;-39
2021/10/08 23:06:58;;;;;;;11.88;7.00;;;8.50;99.90;;;6.79;99.11;102535.38;2570439;30;137307;-39
2021/10/08 23:14:59;;;;;;;10.77;7.32;;;8.40;99.90;;;6.71;99.81;102537.94;2570360;30;136928;-39
2021/10/08 23:17:28;;;;;;;9.90;6.50;;;8.40;99.90;;;6.67;99.77;102537.38;2570226;30;136726;-39
2021/10/08 23:19:55;;;;;;;12.90;7.43;;;8.40;99.90;;;6.60;99.48;102533.50;2570447;30;137513;-39
2021/10/08 23:22:27;;;;;;;11.65;6.82;;;8.30;99.90;;;6.52;99.24;102534.25;2568759;30;138184;-39
2021/10/08 23:24:54;;;;;;;9.95;6.50;;;8.30;99.90;;;6.53;99.22;102532.38;2570134;30;136904;-39
2021/10/08 23:27:22;;;;;;;10.40;7.28;;;8.30;99.90;;;6.50;99.68;102527.25;2571067;30;138240;-39
2021/10/08 23:29:49;;;;;;;11.13;7.13;;;8.20;99.90;;;6.46;99.15;102530.25;2567636;30;137337;-39
2021/10/08 23:32:17;;;;;;;9.82;6.47;;;8.20;99.90;;;6.41;99.22;102529.84;2568497;30;138238;-39
2021/10/08 23:34:44;;;;;;;10.95;6.97;;;8.10;99.90;;;6.38;99.10;102521.13;2568363;30;138523;-39
2021/10/08 23:37:12;;;;;;;10.52;6.95;;;8.10;99.90;;;6.37;99.09;102528.41;2569385;30;139310;-39
2021/10/08 23:39:40;;;;;;;9.73;6.57;;;8.10;99.90;;;6.35;99.18;102535.81;2569429;30;138286;-39
2021/10/08 23:42:07;;;;;;;10.98;6.95;;;8.10;99.90;;;6.33;99.09;102529.66;2570557;30;138463;-39
2021/10/08 23:44:35;;;;;;;14.07;8.02;;;8.10;99.90;;;6.27;98.83;102522.97;2569689;30;138254;-39
2021/10/08 23:47:03;;;;;;;13.18;8.38;;;8.00;99.90;;;6.26;98.80;102525.81;2569174;30;138303;-39
2021/10/08 23:49:30;;;;;;;12.02;7.45;;;8.00;99.90;;;6.25;98.95;102524.09;2569183;30;137835;-39
2021/10/08 23:51:58;;;;;;;13.70;8.07;;;8.00;99.90;;;6.25;98.75;102530.41;2569615;30;137428;-39
2021/10/08 23:54:25;;;;;;;11.70;7.43;;;8.00;99.90;;;6.22;98.56;102529.81;2565269;30;137008;-39
2021/10/08 23:56:53;;;;;;;14.23;8.40;;;8.00;99.90;;;6.19;98.48;102530.94;2568597;30;138909;-39
2021/10/08 23:59:20;;;;;;;15.18;8.43;;;7.90;99.90;;;6.13;98.50;102529.69;2570299;30;137650;-39
